Time;durP1;ratioP1;P1;durP2;ratioP2;P2;SDS_P1;SDS_P2;PMS_P1;PMS_P2;Temp;Humidity;BMP_temperature;BMP_pressure;BME280_temperature;BME280_humidity;BME280_pressure;Samples;Min_cycle;Max_cycle;Signal;HPM_P1;HPM_P2
2023/08/29 00:01:34;;;;;;;1.67;1.43;;;;;;;;;;5031629;28;20224;-53
2023/08/29 00:04:03;;;;;;;2.80;2.00;;;;;;;;;;5031278;28;20229;-54
2023/08/29 00:06:31;;;;;;;2.70;1.83;;;;;;;;;;5030553;28;20170;-51
2023/08/29 00:09:01;;;;;;;3.53;2.33;;;;;;;;;;5030967;28;20208;-50
2023/08/29 00:11:31;;;;;;;1.80;1.60;;;;;;;;;;5029882;28;20273;-53
2023/08/29 00:14:02;;;;;;;2.13;1.73;;;;;;;;;;5032259;28;20174;-48
2023/08/29 00:16:30;;;;;;;2.60;1.50;;;;;;;;;;5031108;28;20533;-52
2023/08/29 00:18:57;;;;;;;1.97;1.53;;;;;;;;;;5031904;28;20265;-52
2023/08/29 00:21:25;;;;;;;1.90;1.70;;;;;;;;;;5031751;28;20174;-52
2023/08/29 00:23:53;;;;;;;3.13;1.90;;;;;;;;;;5031678;28;20189;-53
2023/08/29 00:26:21;;;;;;;3.40;2.00;;;;;;;;;;5032404;28;20426;-51
2023/08/29 00:28:53;;;;;;;3.03;1.70;;;;;;;;;;5032599;28;20175;-48
2023/08/29 00:31:23;;;;;;;3.90;1.93;;;;;;;;;;5031446;28;20542;-53
2023/08/29 00:33:52;;;;;;;1.67;1.57;;;;;;;;;;5029703;28;20166;-54
2023/08/29 00:36:23;;;;;;;4.87;1.73;;;;;;;;;;5031386;28;20236;-54
2023/08/29 00:38:53;;;;;;;2.00;1.80;;;;;;;;;;5031941;28;20174;-53
2023/08/29 00:41:22;;;;;;;3.33;1.67;;;;;;;;;;5031226;28;20565;-52
2023/08/29 00:43:50;;;;;;;1.53;1.43;;;;;;;;;;5030606;28;20170;-50
2023/08/29 00:46:20;;;;;;;6.80;2.23;;;;;;;;;;5031591;28;20204;-54
2023/08/29 00:48:49;;;;;;;1.73;1.63;;;;;;;;;;5030991;28;20321;-54
2023/08/29 00:51:17;;;;;;;2.57;1.80;;;;;;;;;;5031245;28;20198;-51
2023/08/29 00:53:46;;;;;;;2.03;1.80;;;;;;;;;;5033035;28;20231;-51
2023/08/29 00:56:17;;;;;;;2.67;1.80;;;;;;;;;;5030686;28;20175;-48
2023/08/29 00:58:46;;;;;;;2.17;1.77;;;;;;;;;;5029757;28;20213;-51
2023/08/29 01:01:16;;;;;;;2.47;1.80;;;;;;;;;;5028221;28;20185;-48
2023/08/29 01:03:46;;;;;;;2.97;1.90;;;;;;;;;;5027388;28;20241;-52
2023/08/29 01:06:18;;;;;;;1.60;1.50;;;;;;;;;;5032086;28;20170;-51
2023/08/29 01:08:46;;;;;;;4.80;2.10;;;;;;;;;;5033483;28;20181;-49
2023/08/29 01:11:22;;;;;;;2.77;2.30;;;;;;;;;;5034336;28;20717;-54
2023/08/29 01:13:56;;;;;;;3.97;2.07;;;;;;;;;;5033646;28;20184;-50
2023/08/29 01:16:32;;;;;;;3.83;2.00;;;;;;;;;;5034356;28;20236;-51
2023/08/29 01:19:01;;;;;;;2.87;1.80;;;;;;;;;;5034623;28;20482;-55
2023/08/29 01:21:45;;;;;;;2.07;1.80;;;;;;;;;;5034814;28;20170;-55
2023/08/29 01:24:18;;;;;;;2.20;2.00;;;;;;;;;;5034154;28;20174;-52
2023/08/29 01:26:47;;;;;;;2.70;2.10;;;;;;;;;;5034887;28;20615;-51
2023/08/29 01:29:16;;;;;;;3.80;1.93;;;;;;;;;;5033210;28;20695;-53
2023/08/29 01:31:45;;;;;;;2.50;1.90;;;;;;;;;;5035841;28;20170;-51
2023/08/29 01:34:13;;;;;;;2.63;2.43;;;;;;;;;;5035690;28;20253;-51
2023/08/29 01:36:41;;;;;;;3.10;2.00;;;;;;;;;;5035283;28;20189;-49
2023/08/29 01:39:11;;;;;;;3.90;2.20;;;;;;;;;;5033550;28;20243;-55
2023/08/29 01:41:38;;;;;;;2.73;2.33;;;;;;;;;;5033597;28;20178;-51
2023/08/29 01:44:08;;;;;;;2.97;2.40;;;;;;;;;;5034089;28;20265;-54
2023/08/29 01:46:39;;;;;;;2.30;2.07;;;;;;;;;;5034295;28;20243;-51
2023/08/29 01:49:07;;;;;;;4.67;2.67;;;;;;;;;;5034177;28;20504;-48
2023/08/29 01:51:35;;;;;;;3.03;2.03;;;;;;;;;;5034636;28;20166;-49
2023/08/29 01:54:03;;;;;;;2.37;2.10;;;;;;;;;;5034296;28;20167;-54
2023/08/29 01:56:32;;;;;;;7.63;2.70;;;;;;;;;;5034226;28;20185;-52
2023/08/29 01:59:00;;;;;;;6.13;2.30;;;;;;;;;;5034113;28;20215;-52
2023/08/29 02:01:29;;;;;;;3.87;2.30;;;;;;;;;;5034310;28;20482;-51
2023/08/29 02:03:56;;;;;;;3.43;2.33;;;;;;;;;;5033678;28;20643;-50
2023/08/29 02:06:25;;;;;;;4.57;2.23;;;;;;;;;;5033535;28;20205;-55
2023/08/29 02:08:56;;;;;;;3.50;2.50;;;;;;;;;;5034165;28;20186;-52
2023/08/29 02:11:25;;;;;;;3.67;2.13;;;;;;;;;;5033508;28;20193;-53
2023/08/29 02:13:53;;;;;;;3.73;2.40;;;;;;;;;;5034981;28;20325;-51
2023/08/29 02:16:21;;;;;;;2.50;2.30;;;;;;;;;;5032328;28;20558;-53
2023/08/29 02:18:49;;;;;;;7.03;2.90;;;;;;;;;;5034200;28;20175;-53
2023/08/29 02:21:19;;;;;;;3.93;2.10;;;;;;;;;;5036364;28;20189;-55
2023/08/29 02:23:47;;;;;;;3.77;2.13;;;;;;;;;;5037161;28;20178;-51
2023/08/29 02:26:16;;;;;;;5.80;2.67;;;;;;;;;;5035796;28;20190;-52
2023/08/29 02:28:44;;;;;;;3.17;2.40;;;;;;;;;;5036683;28;20209;-53
2023/08/29 02:31:13;;;;;;;3.83;2.37;;;;;;;;;;5037319;28;20368;-53
2023/08/29 02:33:43;;;;;;;3.73;2.20;;;;;;;;;;5037661;28;20167;-55
2023/08/29 02:36:17;;;;;;;2.50;2.30;;;;;;;;;;5036799;28;20182;-53
2023/08/29 02:38:44;;;;;;;2.90;2.33;;;;;;;;;;5036603;28;20173;-51
2023/08/29 02:41:14;;;;;;;4.07;2.73;;;;;;;;;;5038004;28;20171;-51
2023/08/29 02:43:42;;;;;;;2.97;2.47;;;;;;;;;;5037904;28;20236;-53
2023/08/29 02:46:12;;;;;;;2.60;2.40;;;;;;;;;;5037025;28;20253;-55
2023/08/29 02:48:40;;;;;;;2.37;2.17;;;;;;;;;;5038043;28;20178;-54
2023/08/29 02:51:09;;;;;;;3.17;2.50;;;;;;;;;;5036441;28;20267;-52
2023/08/29 02:53:36;;;;;;;2.93;2.40;;;;;;;;;;5034855;28;20428;-52
2023/08/29 02:56:05;;;;;;;2.33;2.13;;;;;;;;;;5031592;28;20174;-49
2023/08/29 02:58:34;;;;;;;3.73;2.60;;;;;;;;;;5034065;28;20236;-49
2023/08/29 03:01:11;;;;;;;2.93;2.30;;;;;;;;;;5031795;28;20186;-52
2023/08/29 03:03:41;;;;;;;2.70;2.00;;;;;;;;;;5031295;28;20234;-49
2023/08/29 03:06:10;;;;;;;2.93;2.63;;;;;;;;;;5030343;28;20181;-52
2023/08/29 03:08:37;;;;;;;2.97;2.40;;;;;;;;;;5030870;28;20209;-48
2023/08/29 03:11:06;;;;;;;3.83;2.50;;;;;;;;;;5030095;28;20560;-54
2023/08/29 03:13:44;;;;;;;4.50;2.37;;;;;;;;;;5033213;28;20616;-53
2023/08/29 03:16:18;;;;;;;3.77;2.60;;;;;;;;;;5030907;28;20200;-51
2023/08/29 03:18:46;;;;;;;5.20;2.63;;;;;;;;;;5033614;28;20506;-52
2023/08/29 03:21:13;;;;;;;4.50;3.30;;;;;;;;;;5035672;28;20586;-52
2023/08/29 03:23:39;;;;;;;3.47;2.10;;;;;;;;;;5035712;28;20515;-53
2023/08/29 03:26:06;;;;;;;3.20;2.40;;;;;;;;;;5036065;28;20170;-52
2023/08/29 03:28:33;;;;;;;4.40;2.80;;;;;;;;;;5035681;28;20178;-55
2023/08/29 03:31:14;;;;;;;5.03;2.63;;;;;;;;;;5034915;28;20204;-52
2023/08/29 03:33:40;;;;;;;2.83;2.23;;;;;;;;;;5035417;28;20166;-52
2023/08/29 03:36:08;;;;;;;2.77;2.57;;;;;;;;;;5036679;28;20226;-55
2023/08/29 03:38:35;;;;;;;3.30;2.47;;;;;;;;;;5035868;28;20539;-51
2023/08/29 03:41:01;;;;;;;3.40;2.97;;;;;;;;;;5035900;28;20170;-50
2023/08/29 03:43:28;;;;;;;3.47;2.70;;;;;;;;;;5035277;28;20272;-52
2023/08/29 03:46:10;;;;;;;4.07;2.63;;;;;;;;;;5034903;28;20174;-53
2023/08/29 03:48:45;;;;;;;4.23;2.80;;;;;;;;;;5031532;28;20217;-51
2023/08/29 03:51:11;;;;;;;3.30;2.80;;;;;;;;;;5033249;28;20258;-51
2023/08/29 03:53:37;;;;;;;6.67;3.00;;;;;;;;;;5030114;28;20471;-53
2023/08/29 03:56:04;;;;;;;3.80;2.80;;;;;;;;;;5030057;28;20646;-52
2023/08/29 03:58:33;;;;;;;3.50;2.87;;;;;;;;;;5029721;28;20593;-52
2023/08/29 04:01:03;;;;;;;3.87;2.73;;;;;;;;;;5030218;28;20497;-52
2023/08/29 04:03:30;;;;;;;4.17;3.07;;;;;;;;;;5031207;28;20302;-49
2023/08/29 04:05:57;;;;;;;4.60;2.97;;;;;;;;;;5029579;28;20178;-52
2023/08/29 04:08:23;;;;;;;3.73;3.20;;;;;;;;;;5029883;28;20180;-52
2023/08/29 04:10:49;;;;;;;4.00;3.20;;;;;;;;;;5028268;28;20214;-51
2023/08/29 04:13:15;;;;;;;4.77;2.50;;;;;;;;;;5030561;28;20177;-52
2023/08/29 04:15:41;;;;;;;2.93;2.73;;;;;;;;;;5031067;28;20601;-55
2023/08/29 04:18:08;;;;;;;2.77;2.40;;;;;;;;;;5029323;28;20170;-52
2023/08/29 04:20:34;;;;;;;4.20;2.67;;;;;;;;;;5033418;28;20515;-52
2023/08/29 04:23:02;;;;;;;2.90;2.60;;;;;;;;;;5033662;28;20159;-51
2023/08/29 04:25:29;;;;;;;3.20;2.87;;;;;;;;;;5033322;28;20425;-49
2023/08/29 04:27:55;;;;;;;4.97;2.70;;;;;;;;;;5034825;28;20185;-52
2023/08/29 04:30:21;;;;;;;2.60;2.40;;;;;;;;;;5034545;28;20209;-52
2023/08/29 04:32:47;;;;;;;3.10;2.83;;;;;;;;;;5033113;28;20275;-55
2023/08/29 04:35:14;;;;;;;2.70;2.50;;;;;;;;;;5033881;28;20236;-54
2023/08/29 04:37:40;;;;;;;3.13;2.83;;;;;;;;;;5032731;28;20572;-52
2023/08/29 04:40:06;;;;;;;4.83;2.83;;;;;;;;;;5035956;28;20178;-53
2023/08/29 04:42:34;;;;;;;3.93;2.87;;;;;;;;;;5037092;28;20558;-50
2023/08/29 04:45:05;;;;;;;3.00;2.70;;;;;;;;;;5037197;28;20776;-50
2023/08/29 04:47:33;;;;;;;4.57;2.70;;;;;;;;;;5035818;28;20178;-55
2023/08/29 04:50:00;;;;;;;3.87;3.20;;;;;;;;;;5036095;28;20210;-52
2023/08/29 04:52:27;;;;;;;3.70;3.37;;;;;;;;;;5036446;28;20178;-55
2023/08/29 04:54:53;;;;;;;4.13;3.30;;;;;;;;;;5035148;28;20170;-51
2023/08/29 04:57:20;;;;;;;5.00;3.60;;;;;;;;;;5035580;28;20184;-53
2023/08/29 04:59:46;;;;;;;4.00;3.60;;;;;;;;;;5035896;28;20205;-53
2023/08/29 05:02:12;;;;;;;3.57;3.13;;;;;;;;;;5034869;28;20206;-54
2023/08/29 05:04:38;;;;;;;3.20;2.90;;;;;;;;;;5033817;28;20257;-49
2023/08/29 05:07:04;;;;;;;3.63;2.63;;;;;;;;;;5035257;28;20181;-51
2023/08/29 05:09:30;;;;;;;3.10;2.70;;;;;;;;;;5035756;28;20198;-55
2023/08/29 05:11:56;;;;;;;5.23;3.10;;;;;;;;;;5035052;28;20205;-53
2023/08/29 05:14:22;;;;;;;3.50;2.57;;;;;;;;;;5035497;28;20228;-52
2023/08/29 05:16:48;;;;;;;5.73;3.20;;;;;;;;;;5036102;28;20163;-54
2023/08/29 05:19:14;;;;;;;3.07;2.77;;;;;;;;;;5036769;28;20174;-55
2023/08/29 05:21:40;;;;;;;6.37;3.03;;;;;;;;;;5037604;28;20162;-53
2023/08/29 05:24:06;;;;;;;4.07;3.20;;;;;;;;;;5035166;28;20608;-54
2023/08/29 05:26:33;;;;;;;3.83;3.47;;;;;;;;;;5036473;28;20542;-55
2023/08/29 05:28:59;;;;;;;4.83;3.57;;;;;;;;;;5035761;28;20538;-55
2023/08/29 05:31:25;;;;;;;4.50;3.37;;;;;;;;;;5033999;28;20218;-55
2023/08/29 05:33:51;;;;;;;3.63;3.20;;;;;;;;;;5034056;28;20265;-49
2023/08/29 05:36:17;;;;;;;3.97;3.17;;;;;;;;;;5034926;28;20244;-54
2023/08/29 05:38:43;;;;;;;4.10;2.93;;;;;;;;;;5032698;28;20185;-53
2023/08/29 05:41:09;;;;;;;5.17;3.33;;;;;;;;;;5032318;28;20182;-52
2023/08/29 05:43:35;;;;;;;4.00;3.53;;;;;;;;;;5032844;28;20213;-52
2023/08/29 05:46:02;;;;;;;4.13;3.70;;;;;;;;;;5033291;28;20178;-53
2023/08/29 05:48:28;;;;;;;4.73;4.23;;;;;;;;;;5032458;28;20507;-54
2023/08/29 05:50:54;;;;;;;5.10;4.33;;;;;;;;;;5028463;28;20208;-52
2023/08/29 05:53:20;;;;;;;7.40;3.97;;;;;;;;;;5029003;28;20510;-49
2023/08/29 05:55:48;;;;;;;6.10;3.97;;;;;;;;;;5029031;28;20172;-52
2023/08/29 05:58:14;;;;;;;4.73;4.30;;;;;;;;;;5030908;28;20261;-55
2023/08/29 06:00:40;;;;;;;4.67;3.73;;;;;;;;;;5029513;28;20268;-57
2023/08/29 06:03:07;;;;;;;4.53;3.80;;;;;;;;;;5029239;28;20185;-53
2023/08/29 06:05:36;;;;;;;4.87;4.10;;;;;;;;;;5031702;28;20264;-50
2023/08/29 06:08:02;;;;;;;4.50;4.10;;;;;;;;;;5031721;28;20170;-49
2023/08/29 06:10:29;;;;;;;6.10;4.67;;;;;;;;;;5031138;28;20251;-51
2023/08/29 06:12:55;;;;;;;4.37;3.93;;;;;;;;;;5031477;28;20501;-53
2023/08/29 06:15:22;;;;;;;5.80;3.43;;;;;;;;;;5030648;28;20232;-51
2023/08/29 06:17:49;;;;;;;6.23;4.63;;;;;;;;;;5026820;28;20254;-50
2023/08/29 06:20:15;;;;;;;5.47;4.67;;;;;;;;;;5030128;28;20189;-50
2023/08/29 06:22:42;;;;;;;7.07;4.63;;;;;;;;;;5031088;28;20193;-50
2023/08/29 06:25:09;;;;;;;7.67;4.37;;;;;;;;;;5030780;28;20294;-48
2023/08/29 06:27:36;;;;;;;5.23;4.30;;;;;;;;;;5031103;28;20197;-50
2023/08/29 06:30:07;;;;;;;4.57;4.10;;;;;;;;;;5031535;28;20237;-52
2023/08/29 06:32:34;;;;;;;5.03;4.40;;;;;;;;;;5031187;28;20570;-54
2023/08/29 06:35:00;;;;;;;5.27;4.30;;;;;;;;;;5030865;28;20162;-52
2023/08/29 06:37:26;;;;;;;5.87;4.87;;;;;;;;;;5033277;28;20189;-52
2023/08/29 06:39:54;;;;;;;7.93;4.73;;;;;;;;;;5032348;28;20268;-51
2023/08/29 06:42:20;;;;;;;4.93;4.40;;;;;;;;;;5032165;28;20185;-54
2023/08/29 06:44:49;;;;;;;6.60;4.43;;;;;;;;;;5031314;28;20240;-48
2023/08/29 06:47:15;;;;;;;4.87;3.80;;;;;;;;;;5031005;28;20170;-54
2023/08/29 06:49:41;;;;;;;7.23;4.00;;;;;;;;;;5029274;28;20210;-53
2023/08/29 06:52:07;;;;;;;6.50;4.73;;;;;;;;;;5031017;28;20886;-49
2023/08/29 06:54:35;;;;;;;6.30;4.03;;;;;;;;;;5030209;28;20180;-52
2023/08/29 06:57:01;;;;;;;4.27;3.83;;;;;;;;;;5030549;28;20171;-51
2023/08/29 06:59:27;;;;;;;4.47;4.03;;;;;;;;;;5030418;28;20251;-53
2023/08/29 07:01:53;;;;;;;7.77;3.93;;;;;;;;;;5029401;28;20178;-53
2023/08/29 07:04:19;;;;;;;4.57;3.50;;;;;;;;;;5029556;28;20257;-50
2023/08/29 07:06:45;;;;;;;5.87;3.77;;;;;;;;;;5029896;28;20744;-53
2023/08/29 07:09:11;;;;;;;7.37;4.90;;;;;;;;;;5027952;28;20170;-51
2023/08/29 07:11:37;;;;;;;4.23;3.47;;;;;;;;;;5027445;28;20189;-52
2023/08/29 07:14:03;;;;;;;3.97;3.10;;;;;;;;;;5027577;28;20492;-53
2023/08/29 07:16:31;;;;;;;3.87;2.87;;;;;;;;;;5025320;28;20166;-50
2023/08/29 07:18:58;;;;;;;4.47;3.67;;;;;;;;;;5022349;28;20183;-52
2023/08/29 07:21:24;;;;;;;4.13;2.70;;;;;;;;;;5026000;28;20174;-54
2023/08/29 07:23:50;;;;;;;2.93;2.30;;;;;;;;;;5026687;28;20182;-50
2023/08/29 07:26:16;;;;;;;3.53;2.70;;;;;;;;;;5027607;28;20170;-51
2023/08/29 07:28:42;;;;;;;3.27;2.40;;;;;;;;;;5026148;28;20174;-51
2023/08/29 07:31:09;;;;;;;4.03;2.53;;;;;;;;;;5026381;28;20213;-50
2023/08/29 07:33:36;;;;;;;5.20;2.40;;;;;;;;;;5029054;28;20613;-54
2023/08/29 07:36:02;;;;;;;2.30;2.10;;;;;;;;;;5026972;28;20234;-50
2023/08/29 07:38:28;;;;;;;2.60;2.40;;;;;;;;;;5028023;28;20209;-50
2023/08/29 07:40:56;;;;;;;2.10;1.90;;;;;;;;;;5028566;28;20232;-52
2023/08/29 07:43:23;;;;;;;2.97;2.40;;;;;;;;;;5030439;28;20237;-54
2023/08/29 07:45:52;;;;;;;4.37;2.20;;;;;;;;;;5030214;28;20332;-52
2023/08/29 07:48:20;;;;;;;2.60;1.83;;;;;;;;;;5029552;28;20178;-54
2023/08/29 07:50:46;;;;;;;2.17;1.97;;;;;;;;;;5029537;28;20416;-52
2023/08/29 07:53:12;;;;;;;3.47;2.20;;;;;;;;;;5048534;28;20461;-49
2023/08/29 07:55:41;;;;;;;4.70;2.30;;;;;;;;;;5047644;28;20197;-50
2023/08/29 07:58:08;;;;;;;2.17;1.70;;;;;;;;;;5048188;28;20176;-53
2023/08/29 08:00:34;;;;;;;3.20;2.10;;;;;;;;;;5048980;28;20268;-53
2023/08/29 08:03:00;;;;;;;3.00;1.70;;;;;;;;;;5048997;28;20665;-53
2023/08/29 08:05:30;;;;;;;3.07;2.07;;;;;;;;;;5049112;28;20228;-51
2023/08/29 08:08:06;;;;;;;1.63;1.43;;;;;;;;;;5048929;28;20236;-55
2023/08/29 08:10:32;;;;;;;3.17;1.47;;;;;;;;;;5048002;28;20213;-52
2023/08/29 08:13:03;;;;;;;1.87;1.60;;;;;;;;;;5050148;28;20180;-55
2023/08/29 08:15:29;;;;;;;2.60;1.60;;;;;;;;;;5048436;28;20170;-54
2023/08/29 08:18:00;;;;;;;3.57;1.70;;;;;;;;;;5049707;28;20311;-53
2023/08/29 08:20:28;;;;;;;2.40;1.87;;;;;;;;;;5050644;28;20181;-51
2023/08/29 08:22:54;;;;;;;1.80;1.67;;;;;;;;;;5049080;28;20182;-52
2023/08/29 08:25:20;;;;;;;1.93;1.70;;;;;;;;;;5032100;28;20280;-55
2023/08/29 08:27:47;;;;;;;1.87;1.57;;;;;;;;;;5031654;28;20271;-50
2023/08/29 08:30:15;;;;;;;2.17;1.67;;;;;;;;;;5031182;28;20193;-54
2023/08/29 08:32:43;;;;;;;3.37;1.60;;;;;;;;;;5031563;28;20173;-53
2023/08/29 08:35:10;;;;;;;2.53;1.67;;;;;;;;;;5032245;28;20283;-53
2023/08/29 08:37:37;;;;;;;3.30;1.80;;;;;;;;;;5051259;28;20172;-55
2023/08/29 08:40:11;;;;;;;4.73;1.90;;;;;;;;;;5031821;28;20183;-52
2023/08/29 08:42:39;;;;;;;2.07;1.73;;;;;;;;;;5049276;28;20330;-48
2023/08/29 08:45:06;;;;;;;2.63;1.87;;;;;;;;;;5032735;28;20170;-55
2023/08/29 08:47:35;;;;;;;3.30;1.90;;;;;;;;;;5033080;28;20270;-53
2023/08/29 08:50:02;;;;;;;2.63;1.60;;;;;;;;;;5050090;28;20240;-50
2023/08/29 08:52:38;;;;;;;1.83;1.60;;;;;;;;;;5050046;28;20261;-52
2023/08/29 08:55:10;;;;;;;2.40;1.50;;;;;;;;;;5050769;28;20177;-54
2023/08/29 08:57:36;;;;;;;2.30;1.70;;;;;;;;;;5031484;28;20510;-52
2023/08/29 09:00:06;;;;;;;1.50;1.40;;;;;;;;;;5031071;28;20486;-51
2023/08/29 09:02:34;;;;;;;2.93;2.03;;;;;;;;;;5031949;28;20217;-50
2023/08/29 09:05:00;;;;;;;1.73;1.37;;;;;;;;;;5032479;28;20246;-49
2023/08/29 09:07:27;;;;;;;1.90;1.40;;;;;;;;;;5050227;28;20197;-52
2023/08/29 09:10:12;;;;;;;3.40;2.13;;;;;;;;;;5032804;28;20216;-51
2023/08/29 09:12:50;;;;;;;4.27;2.00;;;;;;;;;;5051285;28;20192;-51
2023/08/29 09:15:17;;;;;;;3.47;2.30;;;;;;;;;;5032537;28;20267;-53
2023/08/29 09:17:49;;;;;;;7.30;2.40;;;;;;;;;;5049203;28;20199;-50
2023/08/29 09:20:17;;;;;;;2.10;1.90;;;;;;;;;;5031864;28;20669;-51
2023/08/29 09:22:45;;;;;;;2.70;1.73;;;;;;;;;;5030925;28;20629;-53
2023/08/29 09:25:12;;;;;;;3.20;1.80;;;;;;;;;;5027905;28;20280;-53
2023/08/29 09:27:44;;;;;;;4.83;2.33;;;;;;;;;;5029968;28;20669;-50
2023/08/29 09:30:13;;;;;;;2.57;1.77;;;;;;;;;;5033286;28;20240;-55
2023/08/29 09:32:44;;;;;;;3.13;2.13;;;;;;;;;;5034293;28;20759;-52
2023/08/29 09:35:15;;;;;;;4.00;2.40;;;;;;;;;;5033591;28;20273;-52
2023/08/29 09:37:53;;;;;;;4.07;2.17;;;;;;;;;;5032386;28;20174;-52
2023/08/29 09:40:23;;;;;;;2.30;1.47;;;;;;;;;;5032129;28;20190;-52
2023/08/29 09:43:04;;;;;;;1.77;1.67;;;;;;;;;;5031343;28;20178;-52
2023/08/29 09:45:31;;;;;;;3.60;1.50;;;;;;;;;;5027643;28;20174;-52
2023/08/29 09:48:06;;;;;;;2.10;1.60;;;;;;;;;;5012147;28;20506;-54
2023/08/29 09:50:33;;;;;;;1.57;1.40;;;;;;;;;;5010348;28;20782;-55
2023/08/29 09:53:00;;;;;;;3.63;1.70;;;;;;;;;;5028238;28;20182;-55
2023/08/29 09:55:32;;;;;;;1.97;1.70;;;;;;;;;;5028164;28;20793;-49
2023/08/29 09:58:01;;;;;;;2.87;1.90;;;;;;;;;;5028944;28;20185;-50
2023/08/29 10:00:27;;;;;;;2.17;1.30;;;;;;;;;;5031336;28;20260;-54
2023/08/29 10:02:56;;;;;;;4.23;1.30;;;;;;;;;;5030424;28;20182;-54
2023/08/29 10:05:24;;;;;;;1.17;1.07;;;;;;;;;;5016181;28;20178;-53
2023/08/29 10:07:52;;;;;;;1.90;1.13;;;;;;;;;;5032402;28;20235;-51
2023/08/29 10:10:19;;;;;;;2.07;1.30;;;;;;;;;;5031181;28;20513;-50
2023/08/29 10:12:46;;;;;;;4.00;1.50;;;;;;;;;;5032914;28;20166;-52
2023/08/29 10:15:14;;;;;;;2.83;1.77;;;;;;;;;;5030684;28;20277;-54
2023/08/29 10:17:40;;;;;;;1.13;1.00;;;;;;;;;;5030914;28;20749;-54
2023/08/29 10:20:09;;;;;;;4.80;1.20;;;;;;;;;;5029581;28;20236;-52
2023/08/29 10:22:38;;;;;;;2.77;1.13;;;;;;;;;;5013691;28;20178;-49
2023/08/29 10:25:05;;;;;;;1.63;0.87;;;;;;;;;;5048233;28;20225;-55
2023/08/29 10:27:32;;;;;;;2.80;1.40;;;;;;;;;;5049444;28;20504;-54
2023/08/29 10:29:58;;;;;;;1.63;1.13;;;;;;;;;;5030769;28;20204;-52
2023/08/29 10:32:30;;;;;;;6.00;1.20;;;;;;;;;;5031097;28;20169;-54
2023/08/29 10:34:56;;;;;;;0.87;0.87;;;;;;;;;;5030917;28;20173;-51
2023/08/29 10:37:26;;;;;;;1.50;1.10;;;;;;;;;;5029201;28;20268;-52
2023/08/29 10:39:52;;;;;;;1.97;1.10;;;;;;;;;;5030543;28;20192;-51
2023/08/29 10:42:18;;;;;;;1.23;0.70;;;;;;;;;;5029596;28;20181;-53
2023/08/29 10:44:47;;;;;;;1.20;0.80;;;;;;;;;;5028041;28;20185;-54
2023/08/29 10:47:27;;;;;;;1.93;1.00;;;;;;;;;;5043939;28;20178;-52
2023/08/29 10:50:07;;;;;;;1.47;0.90;;;;;;;;;;5028343;28;20201;-52
2023/08/29 10:52:41;;;;;;;2.90;1.03;;;;;;;;;;5046756;28;20176;-53
2023/08/29 10:55:32;;;;;;;1.83;0.90;;;;;;;;;;5031034;28;20169;-52
2023/08/29 10:58:23;;;;;;;0.77;0.77;;;;;;;;;;5048230;28;20450;-53
2023/08/29 11:00:56;;;;;;;1.57;1.03;;;;;;;;;;5048859;28;20185;-51
2023/08/29 11:03:39;;;;;;;2.23;1.10;;;;;;;;;;5015383;28;20181;-52
2023/08/29 11:06:06;;;;;;;3.07;1.00;;;;;;;;;;5033185;28;20173;-54
2023/08/29 11:08:38;;;;;;;0.90;0.70;;;;;;;;;;5049726;28;20235;-50
2023/08/29 11:11:12;;;;;;;2.63;0.97;;;;;;;;;;5030684;28;20228;-53
2023/08/29 11:13:59;;;;;;;1.83;0.80;;;;;;;;;;5047389;28;20231;-52
2023/08/29 11:16:38;;;;;;;2.60;1.40;;;;;;;;;;5031245;28;20173;-49
2023/08/29 11:19:13;;;;;;;1.73;0.70;;;;;;;;;;5048859;28;20173;-52
2023/08/29 11:21:44;;;;;;;1.67;0.90;;;;;;;;;;5015412;28;20187;-51
2023/08/29 11:24:15;;;;;;;2.35;1.13;;;;;;;;;;5026625;28;20229;-51
2023/08/29 11:26:42;;;;;;;1.15;0.80;;;;;;;;;;5027212;28;20198;-52
2023/08/29 11:29:12;;;;;;;0.75;0.70;;;;;;;;;;5029197;28;20174;-52
2023/08/29 11:31:42;;;;;;;1.23;0.70;;;;;;;;;;5027030;28;20424;-53
2023/08/29 11:34:20;;;;;;;1.38;0.70;;;;;;;;;;5025557;28;20184;-51
2023/08/29 11:36:51;;;;;;;0.60;0.60;;;;;;;;;;5010181;28;20189;-55
2023/08/29 11:39:25;;;;;;;2.33;0.80;;;;;;;;;;5028279;28;20232;-50
2023/08/29 11:41:56;;;;;;;1.70;0.80;;;;;;;;;;5027736;28;20189;-55
2023/08/29 11:44:33;;;;;;;0.68;0.55;;;;;;;;;;5026107;28;20163;-54
2023/08/29 11:47:16;;;;;;;0.85;0.73;;;;;;;;;;5022013;28;20182;-52
2023/08/29 11:49:55;;;;;;;3.33;1.00;;;;;;;;;;5026507;28;20233;-50
2023/08/29 11:52:30;;;;;;;1.35;0.90;;;;;;;;;;5028633;28;20273;-53
2023/08/29 11:55:01;;;;;;;1.67;0.90;;;;;;;;;;5026739;28;20177;-52
2023/08/29 11:57:32;;;;;;;1.30;0.80;;;;;;;;;;5027358;28;20368;-54
2023/08/29 12:00:00;;;;;;;0.82;0.80;;;;;;;;;;5025000;28;20181;-48
2023/08/29 12:02:31;;;;;;;1.65;0.82;;;;;;;;;;5028042;28;20170;-53
2023/08/29 12:04:58;;;;;;;2.10;0.75;;;;;;;;;;5026249;28;20559;-51
2023/08/29 12:07:33;;;;;;;0.98;0.90;;;;;;;;;;5026826;28;20643;-48
2023/08/29 12:10:08;;;;;;;1.37;0.80;;;;;;;;;;5025119;28;20197;-54
2023/08/29 12:12:36;;;;;;;1.23;0.80;;;;;;;;;;5028951;28;20185;-54
2023/08/29 12:15:11;;;;;;;1.97;0.80;;;;;;;;;;5027147;28;20185;-53
2023/08/29 12:17:43;;;;;;;2.33;0.63;;;;;;;;;;5026952;28;20186;-51
2023/08/29 12:20:13;;;;;;;1.27;0.60;;;;;;;;;;5028576;28;20204;-52
2023/08/29 12:22:49;;;;;;;2.37;0.90;;;;;;;;;;5028146;28;20182;-50
2023/08/29 12:25:19;;;;;;;0.70;0.70;;;;;;;;;;5027435;28;20687;-54
2023/08/29 12:27:49;;;;;;;0.90;0.70;;;;;;;;;;5025888;28;20170;-50
2023/08/29 12:30:18;;;;;;;0.97;0.87;;;;;;;;;;5025426;28;20709;-51
2023/08/29 12:32:49;;;;;;;0.60;0.60;;;;;;;;;;5027147;28;20173;-50
2023/08/29 12:35:23;;;;;;;1.87;0.90;;;;;;;;;;5025899;28;20744;-54
2023/08/29 12:37:52;;;;;;;0.70;0.70;;;;;;;;;;5025099;28;20169;-53
2023/08/29 12:40:21;;;;;;;1.20;0.60;;;;;;;;;;5027636;28;20173;-50
2023/08/29 12:42:53;;;;;;;1.40;0.93;;;;;;;;;;5026460;28;20551;-49
2023/08/29 12:45:23;;;;;;;0.97;0.70;;;;;;;;;;5028564;28;20186;-51
2023/08/29 12:47:54;;;;;;;0.50;0.50;;;;;;;;;;5028895;28;20251;-49
2023/08/29 12:50:23;;;;;;;1.53;0.80;;;;;;;;;;5027243;28;20296;-52
2023/08/29 12:52:54;;;;;;;0.60;0.60;;;;;;;;;;5028637;28;20179;-53
2023/08/29 12:55:23;;;;;;;1.10;0.70;;;;;;;;;;5026693;28;20553;-52
2023/08/29 12:57:55;;;;;;;0.93;0.70;;;;;;;;;;5026585;28;20167;-54
2023/08/29 13:00:25;;;;;;;0.90;0.73;;;;;;;;;;5029681;28;20577;-55
2023/08/29 13:02:53;;;;;;;1.30;0.87;;;;;;;;;;5029552;28;20278;-49
2023/08/29 13:05:23;;;;;;;2.10;1.00;;;;;;;;;;5030134;28;20185;-53
2023/08/29 13:07:52;;;;;;;1.03;0.70;;;;;;;;;;5028757;28;20246;-53
2023/08/29 13:10:24;;;;;;;0.97;0.60;;;;;;;;;;5025868;28;20829;-51
2023/08/29 13:12:52;;;;;;;1.40;0.90;;;;;;;;;;5029219;28;20731;-50
2023/08/29 13:15:25;;;;;;;2.10;0.90;;;;;;;;;;5031832;28;20166;-53
2023/08/29 13:17:56;;;;;;;1.37;0.70;;;;;;;;;;5028853;28;20344;-54
2023/08/29 13:20:33;;;;;;;1.50;0.90;;;;;;;;;;5028341;28;20212;-52
2023/08/29 13:23:06;;;;;;;2.17;0.97;;;;;;;;;;5029272;28;20193;-49
2023/08/29 13:25:34;;;;;;;0.93;0.70;;;;;;;;;;5031676;28;20185;-48
2023/08/29 13:28:03;;;;;;;2.27;0.90;;;;;;;;;;5030451;28;20169;-52
2023/08/29 13:30:32;;;;;;;0.93;0.80;;;;;;;;;;5048302;28;20296;-53
2023/08/29 13:33:07;;;;;;;1.40;0.87;;;;;;;;;;5028522;28;20283;-53
2023/08/29 13:35:35;;;;;;;2.73;1.00;;;;;;;;;;5031314;28;20173;-51
2023/08/29 13:38:03;;;;;;;0.70;0.70;;;;;;;;;;5031634;28;20170;-49
2023/08/29 13:40:32;;;;;;;1.37;0.60;;;;;;;;;;5031099;28;20169;-51
2023/08/29 13:43:00;;;;;;;1.33;0.90;;;;;;;;;;5032875;28;20169;-50
2023/08/29 13:45:29;;;;;;;0.73;0.70;;;;;;;;;;5050861;28;20177;-53
2023/08/29 13:47:59;;;;;;;1.87;0.70;;;;;;;;;;5032569;28;20173;-52
2023/08/29 13:50:30;;;;;;;1.00;0.70;;;;;;;;;;5033417;28;20525;-49
2023/08/29 13:52:59;;;;;;;0.70;0.70;;;;;;;;;;5054135;28;20191;-50
2023/08/29 13:55:28;;;;;;;2.10;0.60;;;;;;;;;;5035343;28;20165;-52
2023/08/29 13:57:59;;;;;;;1.07;0.77;;;;;;;;;;5034518;28;20170;-53
2023/08/29 14:00:27;;;;;;;1.77;0.63;;;;;;;;;;5052004;28;20157;-53
2023/08/29 14:02:59;;;;;;;0.60;0.60;;;;;;;;;;5050074;28;20189;-55
2023/08/29 14:05:26;;;;;;;1.47;0.80;;;;;;;;;;5030283;28;20205;-52
2023/08/29 14:07:52;;;;;;;0.50;0.50;;;;;;;;;;5031364;28;20181;-55
2023/08/29 14:10:20;;;;;;;1.23;0.80;;;;;;;;;;5030337;28;20751;-49
2023/08/29 14:12:46;;;;;;;1.47;1.00;;;;;;;;;;5043764;28;20168;-51
2023/08/29 14:15:14;;;;;;;1.10;0.90;;;;;;;;;;5029109;28;20564;-52
2023/08/29 14:17:40;;;;;;;1.50;0.77;;;;;;;;;;5029297;28;20177;-53
2023/08/29 14:20:06;;;;;;;2.30;0.70;;;;;;;;;;5046370;28;20469;-51
2023/08/29 14:22:32;;;;;;;0.70;0.60;;;;;;;;;;5045684;28;20165;-51
2023/08/29 14:24:59;;;;;;;0.83;0.50;;;;;;;;;;5025413;28;20688;-49
2023/08/29 14:27:28;;;;;;;1.30;0.60;;;;;;;;;;5026595;28;20186;-55
2023/08/29 14:29:55;;;;;;;1.05;0.70;;;;;;;;;;5026849;28;20305;-54
2023/08/29 14:32:26;;;;;;;2.42;0.50;;;;;;;;;;5024314;28;20205;-53
2023/08/29 14:34:52;;;;;;;0.82;0.60;;;;;;;;;;5026823;28;20178;-53
2023/08/29 14:37:18;;;;;;;0.75;0.60;;;;;;;;;;5028949;28;20197;-54
2023/08/29 14:39:45;;;;;;;1.25;0.60;;;;;;;;;;5029378;28;20212;-53
2023/08/29 14:42:11;;;;;;;1.05;0.60;;;;;;;;;;5031090;28;20232;-53
2023/08/29 14:44:38;;;;;;;1.25;0.63;;;;;;;;;;5029064;28;20703;-50
2023/08/29 14:47:07;;;;;;;0.80;0.60;;;;;;;;;;5030234;28;20184;-48
2023/08/29 14:49:38;;;;;;;0.70;0.70;;;;;;;;;;5030221;28;20249;-52
2023/08/29 14:52:09;;;;;;;0.65;0.47;;;;;;;;;;5029801;28;20200;-53
2023/08/29 14:54:35;;;;;;;1.77;0.90;;;;;;;;;;5031219;28;20159;-50